sensor_id;sensor_type;location;lat;lon;timestamp;P1;durP1;ratioP1;P2;durP2;ratioP2
17147;SDS011;8689;47.364;8.796;2023-08-24T00:02:00;3.43;;;2.80;;
17147;SDS011;8689;47.364;8.796;2023-08-24T00:04:27;5.57;;;3.60;;
17147;SDS011;8689;47.364;8.796;2023-08-24T00:06:54;6.63;;;3.87;;
17147;SDS011;8689;47.364;8.796;2023-08-24T00:09:21;7.97;;;3.50;;
17147;SDS011;8689;47.364;8.796;2023-08-24T00:11:51;4.70;;;3.73;;
17147;SDS011;8689;47.364;8.796;2023-08-24T00:14:19;5.27;;;4.03;;
17147;SDS011;8689;47.364;8.796;2023-08-24T00:16:46;8.47;;;3.77;;
17147;SDS011;8689;47.364;8.796;2023-08-24T00:19:14;9.97;;;4.37;;
17147;SDS011;8689;47.364;8.796;2023-08-24T00:21:41;9.57;;;3.93;;
17147;SDS011;8689;47.364;8.796;2023-08-24T00:24:08;4.60;;;4.07;;
17147;SDS011;8689;47.364;8.796;2023-08-24T00:26:35;5.23;;;3.77;;
17147;SDS011;8689;47.364;8.796;2023-08-24T00:29:04;7.30;;;3.63;;
17147;SDS011;8689;47.364;8.796;2023-08-24T00:31:31;8.03;;;4.43;;
17147;SDS011;8689;47.364;8.796;2023-08-24T00:33:58;8.23;;;4.07;;
17147;SDS011;8689;47.364;8.796;2023-08-24T00:36:25;7.50;;;4.00;;
17147;SDS011;8689;47.364;8.796;2023-08-24T00:38:52;4.93;;;4.27;;
17147;SDS011;8689;47.364;8.796;2023-08-24T00:41:19;6.53;;;3.70;;
17147;SDS011;8689;47.364;8.796;2023-08-24T00:43:46;5.23;;;4.17;;
17147;SDS011;8689;47.364;8.796;2023-08-24T00:46:16;6.07;;;4.40;;
17147;SDS011;8689;47.364;8.796;2023-08-24T00:48:44;5.87;;;3.73;;
17147;SDS011;8689;47.364;8.796;2023-08-24T00:51:12;7.23;;;4.63;;
17147;SDS011;8689;47.364;8.796;2023-08-24T00:53:39;5.17;;;4.63;;
17147;SDS011;8689;47.364;8.796;2023-08-24T00:56:06;16.10;;;4.80;;
17147;SDS011;8689;47.364;8.796;2023-08-24T00:58:34;10.50;;;4.60;;
17147;SDS011;8689;47.364;8.796;2023-08-24T01:01:02;5.40;;;4.10;;
17147;SDS011;8689;47.364;8.796;2023-08-24T01:03:31;7.27;;;4.20;;
17147;SDS011;8689;47.364;8.796;2023-08-24T01:05:58;7.40;;;4.37;;
17147;SDS011;8689;47.364;8.796;2023-08-24T01:08:25;7.70;;;4.10;;
17147;SDS011;8689;47.364;8.796;2023-08-24T01:10:55;13.57;;;4.43;;
17147;SDS011;8689;47.364;8.796;2023-08-24T01:13:27;12.10;;;4.20;;
17147;SDS011;8689;47.364;8.796;2023-08-24T01:16:04;8.97;;;4.70;;
17147;SDS011;8689;47.364;8.796;2023-08-24T01:18:38;4.93;;;4.10;;
17147;SDS011;8689;47.364;8.796;2023-08-24T01:21:08;6.80;;;4.30;;
17147;SDS011;8689;47.364;8.796;2023-08-24T01:23:36;11.23;;;4.60;;
17147;SDS011;8689;47.364;8.796;2023-08-24T01:26:13;10.43;;;4.40;;
17147;SDS011;8689;47.364;8.796;2023-08-24T01:28:43;8.10;;;4.77;;
17147;SDS011;8689;47.364;8.796;2023-08-24T01:31:11;9.27;;;4.90;;
17147;SDS011;8689;47.364;8.796;2023-08-24T01:33:40;6.17;;;4.93;;
17147;SDS011;8689;47.364;8.796;2023-08-24T01:36:07;5.87;;;4.60;;
17147;SDS011;8689;47.364;8.796;2023-08-24T01:38:35;6.67;;;4.83;;
17147;SDS011;8689;47.364;8.796;2023-08-24T01:41:06;6.97;;;5.10;;
17147;SDS011;8689;47.364;8.796;2023-08-24T01:43:39;9.27;;;4.33;;
17147;SDS011;8689;47.364;8.796;2023-08-24T01:46:08;7.50;;;4.57;;
17147;SDS011;8689;47.364;8.796;2023-08-24T01:48:37;13.67;;;4.73;;
17147;SDS011;8689;47.364;8.796;2023-08-24T01:51:06;7.20;;;4.90;;
17147;SDS011;8689;47.364;8.796;2023-08-24T01:53:35;9.17;;;4.90;;
17147;SDS011;8689;47.364;8.796;2023-08-24T01:56:07;7.77;;;5.67;;
17147;SDS011;8689;47.364;8.796;2023-08-24T01:58:35;12.87;;;4.80;;
17147;SDS011;8689;47.364;8.796;2023-08-24T02:01:03;9.23;;;4.53;;
17147;SDS011;8689;47.364;8.796;2023-08-24T02:03:32;9.57;;;5.37;;
17147;SDS011;8689;47.364;8.796;2023-08-24T02:05:59;9.60;;;4.67;;
17147;SDS011;8689;47.364;8.796;2023-08-24T02:08:27;10.20;;;4.97;;
17147;SDS011;8689;47.364;8.796;2023-08-24T02:10:54;6.30;;;4.67;;
17147;SDS011;8689;47.364;8.796;2023-08-24T02:13:21;9.40;;;4.53;;
17147;SDS011;8689;47.364;8.796;2023-08-24T02:15:48;12.43;;;4.73;;
17147;SDS011;8689;47.364;8.796;2023-08-24T02:18:16;10.60;;;5.10;;
17147;SDS011;8689;47.364;8.796;2023-08-24T02:20:43;7.87;;;5.97;;
17147;SDS011;8689;47.364;8.796;2023-08-24T02:23:10;9.03;;;4.83;;
17147;SDS011;8689;47.364;8.796;2023-08-24T02:25:41;8.03;;;5.10;;
17147;SDS011;8689;47.364;8.796;2023-08-24T02:28:08;9.37;;;5.60;;
17147;SDS011;8689;47.364;8.796;2023-08-24T02:30:36;12.53;;;6.43;;
17147;SDS011;8689;47.364;8.796;2023-08-24T02:33:04;7.87;;;5.83;;
17147;SDS011;8689;47.364;8.796;2023-08-24T02:35:32;8.80;;;4.90;;
17147;SDS011;8689;47.364;8.796;2023-08-24T02:38:00;13.13;;;5.00;;
17147;SDS011;8689;47.364;8.796;2023-08-24T02:40:27;10.80;;;5.27;;
17147;SDS011;8689;47.364;8.796;2023-08-24T02:42:54;7.27;;;5.40;;
17147;SDS011;8689;47.364;8.796;2023-08-24T02:45:21;6.30;;;4.90;;
17147;SDS011;8689;47.364;8.796;2023-08-24T02:47:48;7.77;;;5.13;;
17147;SDS011;8689;47.364;8.796;2023-08-24T02:50:15;7.67;;;5.00;;
17147;SDS011;8689;47.364;8.796;2023-08-24T02:52:44;8.17;;;5.40;;
17147;SDS011;8689;47.364;8.796;2023-08-24T02:55:11;6.67;;;5.50;;
17147;SDS011;8689;47.364;8.796;2023-08-24T02:57:38;9.97;;;6.50;;
17147;SDS011;8689;47.364;8.796;2023-08-24T03:00:06;11.30;;;5.00;;
17147;SDS011;8689;47.364;8.796;2023-08-24T03:02:34;11.93;;;5.47;;
17147;SDS011;8689;47.364;8.796;2023-08-24T03:05:02;7.50;;;5.60;;
17147;SDS011;8689;47.364;8.796;2023-08-24T03:07:29;11.07;;;5.43;;
17147;SDS011;8689;47.364;8.796;2023-08-24T03:09:58;7.63;;;5.73;;
17147;SDS011;8689;47.364;8.796;2023-08-24T03:12:24;19.77;;;6.13;;
17147;SDS011;8689;47.364;8.796;2023-08-24T03:14:51;10.73;;;5.67;;
17147;SDS011;8689;47.364;8.796;2023-08-24T03:17:20;5.70;;;5.20;;
17147;SDS011;8689;47.364;8.796;2023-08-24T03:19:47;8.47;;;5.03;;
17147;SDS011;8689;47.364;8.796;2023-08-24T03:22:14;8.47;;;7.10;;
17147;SDS011;8689;47.364;8.796;2023-08-24T03:24:41;11.37;;;6.47;;
17147;SDS011;8689;47.364;8.796;2023-08-24T03:27:09;8.27;;;5.53;;
17147;SDS011;8689;47.364;8.796;2023-08-24T03:29:37;10.70;;;5.83;;
17147;SDS011;8689;47.364;8.796;2023-08-24T03:32:04;10.23;;;5.90;;
17147;SDS011;8689;47.364;8.796;2023-08-24T03:34:31;7.73;;;5.73;;
17147;SDS011;8689;47.364;8.796;2023-08-24T03:36:57;7.90;;;6.23;;
17147;SDS011;8689;47.364;8.796;2023-08-24T03:39:25;6.10;;;5.50;;
17147;SDS011;8689;47.364;8.796;2023-08-24T03:41:52;7.47;;;5.47;;
17147;SDS011;8689;47.364;8.796;2023-08-24T03:44:20;9.07;;;5.53;;
17147;SDS011;8689;47.364;8.796;2023-08-24T03:46:47;9.37;;;5.30;;
17147;SDS011;8689;47.364;8.796;2023-08-24T03:49:15;9.63;;;6.53;;
17147;SDS011;8689;47.364;8.796;2023-08-24T03:51:42;7.73;;;6.20;;
17147;SDS011;8689;47.364;8.796;2023-08-24T03:54:09;16.20;;;6.23;;
17147;SDS011;8689;47.364;8.796;2023-08-24T03:56:36;10.03;;;6.50;;
17147;SDS011;8689;47.364;8.796;2023-08-24T03:59:03;12.13;;;5.97;;
17147;SDS011;8689;47.364;8.796;2023-08-24T04:01:32;13.33;;;6.07;;
17147;SDS011;8689;47.364;8.796;2023-08-24T04:03:59;9.90;;;6.97;;
17147;SDS011;8689;47.364;8.796;2023-08-24T04:06:26;13.20;;;6.30;;
17147;SDS011;8689;47.364;8.796;2023-08-24T04:08:53;12.10;;;6.40;;
17147;SDS011;8689;47.364;8.796;2023-08-24T04:11:20;12.40;;;6.73;;
17147;SDS011;8689;47.364;8.796;2023-08-24T04:13:47;11.43;;;6.47;;
17147;SDS011;8689;47.364;8.796;2023-08-24T04:16:14;7.83;;;6.27;;
17147;SDS011;8689;47.364;8.796;2023-08-24T04:18:44;16.03;;;7.17;;
17147;SDS011;8689;47.364;8.796;2023-08-24T04:21:11;10.60;;;5.63;;
17147;SDS011;8689;47.364;8.796;2023-08-24T04:23:38;8.03;;;6.20;;
17147;SDS011;8689;47.364;8.796;2023-08-24T04:26:09;9.67;;;6.13;;
17147;SDS011;8689;47.364;8.796;2023-08-24T04:28:36;11.40;;;6.87;;
17147;SDS011;8689;47.364;8.796;2023-08-24T04:31:03;12.37;;;6.67;;
17147;SDS011;8689;47.364;8.796;2023-08-24T04:33:30;10.03;;;6.07;;
17147;SDS011;8689;47.364;8.796;2023-08-24T04:35:59;7.40;;;6.47;;
17147;SDS011;8689;47.364;8.796;2023-08-24T04:38:28;9.27;;;6.40;;
17147;SDS011;8689;47.364;8.796;2023-08-24T04:40:55;11.67;;;7.57;;
17147;SDS011;8689;47.364;8.796;2023-08-24T04:43:23;10.70;;;6.27;;
17147;SDS011;8689;47.364;8.796;2023-08-24T04:45:54;9.03;;;5.90;;
17147;SDS011;8689;47.364;8.796;2023-08-24T04:48:25;12.40;;;6.80;;
17147;SDS011;8689;47.364;8.796;2023-08-24T04:50:52;13.57;;;7.47;;
17147;SDS011;8689;47.364;8.796;2023-08-24T04:53:22;13.63;;;7.30;;
17147;SDS011;8689;47.364;8.796;2023-08-24T04:55:49;10.33;;;6.30;;
17147;SDS011;8689;47.364;8.796;2023-08-24T04:58:17;18.03;;;7.30;;
17147;SDS011;8689;47.364;8.796;2023-08-24T05:00:44;15.63;;;7.87;;
17147;SDS011;8689;47.364;8.796;2023-08-24T05:03:13;9.30;;;6.80;;
17147;SDS011;8689;47.364;8.796;2023-08-24T05:05:41;12.43;;;7.00;;
17147;SDS011;8689;47.364;8.796;2023-08-24T05:08:08;12.13;;;5.63;;
17147;SDS011;8689;47.364;8.796;2023-08-24T05:10:37;14.63;;;6.63;;
17147;SDS011;8689;47.364;8.796;2023-08-24T05:13:04;12.93;;;5.77;;
17147;SDS011;8689;47.364;8.796;2023-08-24T05:15:32;11.20;;;6.33;;
17147;SDS011;8689;47.364;8.796;2023-08-24T05:18:00;8.93;;;5.30;;
17147;SDS011;8689;47.364;8.796;2023-08-24T05:20:28;13.90;;;6.90;;
17147;SDS011;8689;47.364;8.796;2023-08-24T05:22:55;12.27;;;5.70;;
17147;SDS011;8689;47.364;8.796;2023-08-24T05:25:23;8.90;;;5.33;;
17147;SDS011;8689;47.364;8.796;2023-08-24T05:27:51;12.03;;;5.87;;
17147;SDS011;8689;47.364;8.796;2023-08-24T05:30:18;16.63;;;7.90;;
17147;SDS011;8689;47.364;8.796;2023-08-24T05:32:46;7.93;;;5.57;;
17147;SDS011;8689;47.364;8.796;2023-08-24T05:35:13;11.30;;;6.00;;
17147;SDS011;8689;47.364;8.796;2023-08-24T05:37:40;16.33;;;7.57;;
17147;SDS011;8689;47.364;8.796;2023-08-24T05:40:07;11.10;;;5.43;;
17147;SDS011;8689;47.364;8.796;2023-08-24T05:42:35;12.17;;;6.73;;
17147;SDS011;8689;47.364;8.796;2023-08-24T05:45:04;14.00;;;5.87;;
17147;SDS011;8689;47.364;8.796;2023-08-24T05:47:33;12.83;;;5.90;;
17147;SDS011;8689;47.364;8.796;2023-08-24T05:50:00;9.40;;;6.13;;
17147;SDS011;8689;47.364;8.796;2023-08-24T05:52:27;8.50;;;6.23;;
17147;SDS011;8689;47.364;8.796;2023-08-24T05:54:54;12.13;;;5.63;;
17147;SDS011;8689;47.364;8.796;2023-08-24T05:57:21;10.33;;;5.50;;
17147;SDS011;8689;47.364;8.796;2023-08-24T05:59:48;12.53;;;5.43;;
17147;SDS011;8689;47.364;8.796;2023-08-24T06:02:17;7.60;;;5.90;;
17147;SDS011;8689;47.364;8.796;2023-08-24T06:04:44;12.83;;;6.47;;
17147;SDS011;8689;47.364;8.796;2023-08-24T06:07:11;10.87;;;5.80;;
17147;SDS011;8689;47.364;8.796;2023-08-24T06:09:38;11.40;;;7.07;;
17147;SDS011;8689;47.364;8.796;2023-08-24T06:12:06;9.63;;;6.17;;
17147;SDS011;8689;47.364;8.796;2023-08-24T06:14:33;12.73;;;6.37;;
17147;SDS011;8689;47.364;8.796;2023-08-24T06:17:01;15.67;;;5.77;;
17147;SDS011;8689;47.364;8.796;2023-08-24T06:19:30;8.93;;;5.70;;
17147;SDS011;8689;47.364;8.796;2023-08-24T06:21:58;12.45;;;6.40;;
17147;SDS011;8689;47.364;8.796;2023-08-24T06:24:25;13.93;;;6.70;;
17147;SDS011;8689;47.364;8.796;2023-08-24T06:26:52;12.27;;;6.77;;
17147;SDS011;8689;47.364;8.796;2023-08-24T06:29:19;9.35;;;6.82;;
17147;SDS011;8689;47.364;8.796;2023-08-24T06:31:46;15.40;;;7.10;;
17147;SDS011;8689;47.364;8.796;2023-08-24T06:34:13;23.52;;;8.40;;
17147;SDS011;8689;47.364;8.796;2023-08-24T06:36:41;9.32;;;6.43;;
17147;SDS011;8689;47.364;8.796;2023-08-24T06:39:09;9.30;;;5.97;;
17147;SDS011;8689;47.364;8.796;2023-08-24T06:41:36;7.22;;;6.22;;
17147;SDS011;8689;47.364;8.796;2023-08-24T06:44:03;15.07;;;6.03;;
17147;SDS011;8689;47.364;8.796;2023-08-24T06:46:30;9.07;;;6.32;;
17147;SDS011;8689;47.364;8.796;2023-08-24T06:48:58;6.47;;;5.82;;
17147;SDS011;8689;47.364;8.796;2023-08-24T06:51:25;7.40;;;6.15;;
17147;SDS011;8689;47.364;8.796;2023-08-24T06:53:54;17.67;;;6.70;;
17147;SDS011;8689;47.364;8.796;2023-08-24T06:56:21;12.30;;;5.90;;
17147;SDS011;8689;47.364;8.796;2023-08-24T06:58:48;11.05;;;6.22;;
17147;SDS011;8689;47.364;8.796;2023-08-24T07:01:16;11.43;;;6.93;;
17147;SDS011;8689;47.364;8.796;2023-08-24T07:03:43;10.60;;;6.28;;
17147;SDS011;8689;47.364;8.796;2023-08-24T07:06:10;9.68;;;6.35;;
17147;SDS011;8689;47.364;8.796;2023-08-24T07:08:38;10.77;;;5.53;;
17147;SDS011;8689;47.364;8.796;2023-08-24T07:11:07;11.77;;;5.70;;
17147;SDS011;8689;47.364;8.796;2023-08-24T07:13:34;12.45;;;5.70;;
17147;SDS011;8689;47.364;8.796;2023-08-24T07:16:01;6.93;;;5.28;;
17147;SDS011;8689;47.364;8.796;2023-08-24T07:18:29;11.60;;;5.40;;
17147;SDS011;8689;47.364;8.796;2023-08-24T07:20:56;15.02;;;6.28;;
17147;SDS011;8689;47.364;8.796;2023-08-24T07:23:24;7.18;;;5.55;;
17147;SDS011;8689;47.364;8.796;2023-08-24T07:25:52;9.40;;;4.63;;
17147;SDS011;8689;47.364;8.796;2023-08-24T07:28:20;12.27;;;5.55;;
17147;SDS011;8689;47.364;8.796;2023-08-24T07:30:47;7.57;;;4.82;;
17147;SDS011;8689;47.364;8.796;2023-08-24T07:33:15;9.63;;;5.72;;
17147;SDS011;8689;47.364;8.796;2023-08-24T07:35:42;10.10;;;4.80;;
17147;SDS011;8689;47.364;8.796;2023-08-24T07:38:09;7.32;;;4.82;;
17147;SDS011;8689;47.364;8.796;2023-08-24T07:40:36;9.82;;;6.32;;
17147;SDS011;8689;47.364;8.796;2023-08-24T07:43:03;6.60;;;4.65;;
17147;SDS011;8689;47.364;8.796;2023-08-24T07:45:32;12.43;;;5.15;;
17147;SDS011;8689;47.364;8.796;2023-08-24T07:47:59;10.80;;;4.97;;
17147;SDS011;8689;47.364;8.796;2023-08-24T07:50:26;12.60;;;5.38;;
17147;SDS011;8689;47.364;8.796;2023-08-24T07:52:53;12.80;;;5.40;;
17147;SDS011;8689;47.364;8.796;2023-08-24T07:55:21;12.70;;;5.00;;
17147;SDS011;8689;47.364;8.796;2023-08-24T07:57:48;15.82;;;5.03;;
17147;SDS011;8689;47.364;8.796;2023-08-24T08:00:15;8.93;;;5.10;;
17147;SDS011;8689;47.364;8.796;2023-08-24T08:02:44;7.15;;;4.18;;
17147;SDS011;8689;47.364;8.796;2023-08-24T08:05:11;7.75;;;4.95;;
17147;SDS011;8689;47.364;8.796;2023-08-24T08:07:38;11.95;;;4.63;;
17147;SDS011;8689;47.364;8.796;2023-08-24T08:10:06;10.48;;;5.80;;
17147;SDS011;8689;47.364;8.796;2023-08-24T08:12:33;10.90;;;5.20;;
17147;SDS011;8689;47.364;8.796;2023-08-24T08:15:01;10.98;;;5.20;;
17147;SDS011;8689;47.364;8.796;2023-08-24T08:17:29;10.05;;;5.13;;
17147;SDS011;8689;47.364;8.796;2023-08-24T08:20:00;18.70;;;5.45;;
17147;SDS011;8689;47.364;8.796;2023-08-24T08:22:27;22.05;;;5.68;;
17147;SDS011;8689;47.364;8.796;2023-08-24T08:24:54;12.77;;;4.95;;
17147;SDS011;8689;47.364;8.796;2023-08-24T08:27:23;10.82;;;5.30;;
17147;SDS011;8689;47.364;8.796;2023-08-24T08:29:50;16.77;;;5.38;;
17147;SDS011;8689;47.364;8.796;2023-08-24T08:32:18;15.35;;;5.15;;
17147;SDS011;8689;47.364;8.796;2023-08-24T08:34:45;12.98;;;5.30;;
17147;SDS011;8689;47.364;8.796;2023-08-24T08:37:14;11.27;;;4.65;;
17147;SDS011;8689;47.364;8.796;2023-08-24T08:39:41;11.40;;;4.50;;
17147;SDS011;8689;47.364;8.796;2023-08-24T08:42:11;14.52;;;5.22;;
17147;SDS011;8689;47.364;8.796;2023-08-24T08:44:40;18.83;;;5.47;;
17147;SDS011;8689;47.364;8.796;2023-08-24T08:47:09;13.45;;;5.32;;
17147;SDS011;8689;47.364;8.796;2023-08-24T08:49:38;11.05;;;4.88;;
17147;SDS011;8689;47.364;8.796;2023-08-24T08:52:06;11.18;;;5.22;;
17147;SDS011;8689;47.364;8.796;2023-08-24T08:54:35;13.18;;;4.53;;
17147;SDS011;8689;47.364;8.796;2023-08-24T08:57:02;14.43;;;5.28;;
17147;SDS011;8689;47.364;8.796;2023-08-24T08:59:30;14.68;;;5.32;;
17147;SDS011;8689;47.364;8.796;2023-08-24T09:01:57;20.08;;;4.65;;
17147;SDS011;8689;47.364;8.796;2023-08-24T09:04:27;15.65;;;4.70;;
17147;SDS011;8689;47.364;8.796;2023-08-24T09:06:55;9.68;;;5.45;;
17147;SDS011;8689;47.364;8.796;2023-08-24T09:09:23;15.77;;;5.93;;
17147;SDS011;8689;47.364;8.796;2023-08-24T09:11:52;14.05;;;4.63;;
17147;SDS011;8689;47.364;8.796;2023-08-24T09:14:19;14.25;;;6.03;;
17147;SDS011;8689;47.364;8.796;2023-08-24T09:16:46;17.23;;;5.53;;
17147;SDS011;8689;47.364;8.796;2023-08-24T09:19:17;13.15;;;4.95;;
17147;SDS011;8689;47.364;8.796;2023-08-24T09:21:44;11.07;;;5.40;;
17147;SDS011;8689;47.364;8.796;2023-08-24T09:24:11;16.23;;;5.18;;
17147;SDS011;8689;47.364;8.796;2023-08-24T09:26:39;11.30;;;5.32;;
17147;SDS011;8689;47.364;8.796;2023-08-24T09:29:13;12.13;;;5.32;;
17147;SDS011;8689;47.364;8.796;2023-08-24T09:31:42;12.88;;;4.78;;
17147;SDS011;8689;47.364;8.796;2023-08-24T09:34:12;18.15;;;5.65;;
17147;SDS011;8689;47.364;8.796;2023-08-24T09:36:46;12.32;;;5.03;;
17147;SDS011;8689;47.364;8.796;2023-08-24T09:39:14;12.45;;;5.20;;
17147;SDS011;8689;47.364;8.796;2023-08-24T09:41:45;23.83;;;5.43;;
17147;SDS011;8689;47.364;8.796;2023-08-24T09:44:16;17.33;;;4.97;;
17147;SDS011;8689;47.364;8.796;2023-08-24T09:46:43;25.98;;;5.22;;
17147;SDS011;8689;47.364;8.796;2023-08-24T09:49:11;13.30;;;5.60;;
17147;SDS011;8689;47.364;8.796;2023-08-24T09:51:38;13.82;;;5.50;;
17147;SDS011;8689;47.364;8.796;2023-08-24T09:54:07;7.10;;;4.43;;
17147;SDS011;8689;47.364;8.796;2023-08-24T09:56:36;13.68;;;6.10;;
17147;SDS011;8689;47.364;8.796;2023-08-24T09:59:08;15.63;;;4.72;;
17147;SDS011;8689;47.364;8.796;2023-08-24T10:01:41;10.68;;;5.18;;
17147;SDS011;8689;47.364;8.796;2023-08-24T10:04:10;14.23;;;4.55;;
17147;SDS011;8689;47.364;8.796;2023-08-24T10:06:40;12.15;;;4.13;;
17147;SDS011;8689;47.364;8.796;2023-08-24T10:09:14;18.20;;;6.07;;
17147;SDS011;8689;47.364;8.796;2023-08-24T10:11:48;18.25;;;4.95;;
17147;SDS011;8689;47.364;8.796;2023-08-24T10:14:21;16.80;;;5.43;;
17147;SDS011;8689;47.364;8.796;2023-08-24T10:16:55;16.15;;;5.40;;
17147;SDS011;8689;47.364;8.796;2023-08-24T10:19:23;15.38;;;5.13;;
17147;SDS011;8689;47.364;8.796;2023-08-24T10:21:51;16.38;;;4.65;;
17147;SDS011;8689;47.364;8.796;2023-08-24T10:24:22;10.63;;;5.20;;
17147;SDS011;8689;47.364;8.796;2023-08-24T10:26:50;13.00;;;4.90;;
17147;SDS011;8689;47.364;8.796;2023-08-24T10:29:18;13.05;;;5.38;;
17147;SDS011;8689;47.364;8.796;2023-08-24T10:31:46;17.80;;;6.30;;
17147;SDS011;8689;47.364;8.796;2023-08-24T10:34:18;11.23;;;5.03;;
17147;SDS011;8689;47.364;8.796;2023-08-24T10:36:50;19.80;;;4.80;;
17147;SDS011;8689;47.364;8.796;2023-08-24T10:39:27;15.02;;;4.85;;
17147;SDS011;8689;47.364;8.796;2023-08-24T10:41:54;18.08;;;5.95;;
17147;SDS011;8689;47.364;8.796;2023-08-24T10:44:24;11.77;;;4.80;;
17147;SDS011;8689;47.364;8.796;2023-08-24T10:47:11;12.50;;;4.43;;
17147;SDS011;8689;47.364;8.796;2023-08-24T10:49:41;10.80;;;4.97;;
17147;SDS011;8689;47.364;8.796;2023-08-24T10:52:18;17.00;;;4.97;;
17147;SDS011;8689;47.364;8.796;2023-08-24T10:54:47;7.25;;;3.72;;
17147;SDS011;8689;47.364;8.796;2023-08-24T10:57:19;15.48;;;5.28;;
17147;SDS011;8689;47.364;8.796;2023-08-24T11:00:00;11.93;;;4.22;;
17147;SDS011;8689;47.364;8.796;2023-08-24T11:02:41;14.63;;;4.78;;
17147;SDS011;8689;47.364;8.796;2023-08-24T11:05:17;14.52;;;4.82;;
17147;SDS011;8689;47.364;8.796;2023-08-24T11:07:53;17.67;;;5.13;;
17147;SDS011;8689;47.364;8.796;2023-08-24T11:10:22;12.55;;;4.15;;
17147;SDS011;8689;47.364;8.796;2023-08-24T11:13:19;14.23;;;4.78;;
17147;SDS011;8689;47.364;8.796;2023-08-24T11:15:48;16.77;;;5.18;;
17147;SDS011;8689;47.364;8.796;2023-08-24T11:18:23;18.08;;;5.20;;
17147;SDS011;8689;47.364;8.796;2023-08-24T11:20:54;9.40;;;4.40;;
17147;SDS011;8689;47.364;8.796;2023-08-24T11:23:22;16.42;;;4.50;;
17147;SDS011;8689;47.364;8.796;2023-08-24T11:25:51;14.90;;;4.15;;
17147;SDS011;8689;47.364;8.796;2023-08-24T11:28:22;13.80;;;4.38;;
17147;SDS011;8689;47.364;8.796;2023-08-24T11:30:51;9.40;;;4.70;;
17147;SDS011;8689;47.364;8.796;2023-08-24T11:33:26;17.48;;;4.65;;
17147;SDS011;8689;47.364;8.796;2023-08-24T11:35:56;19.10;;;5.30;;
17147;SDS011;8689;47.364;8.796;2023-08-24T11:38:24;14.70;;;4.88;;
17147;SDS011;8689;47.364;8.796;2023-08-24T11:40:51;15.43;;;4.63;;
17147;SDS011;8689;47.364;8.796;2023-08-24T11:43:24;12.50;;;3.90;;
17147;SDS011;8689;47.364;8.796;2023-08-24T11:45:53;14.27;;;4.07;;
17147;SDS011;8689;47.364;8.796;2023-08-24T11:48:23;18.35;;;4.28;;
17147;SDS011;8689;47.364;8.796;2023-08-24T11:50:56;12.85;;;4.47;;
17147;SDS011;8689;47.364;8.796;2023-08-24T11:53:24;27.13;;;4.95;;
17147;SDS011;8689;47.364;8.796;2023-08-24T11:55:53;15.65;;;4.38;;
17147;SDS011;8689;47.364;8.796;2023-08-24T11:58:20;11.32;;;3.97;;
17147;SDS011;8689;47.364;8.796;2023-08-24T12:00:47;11.90;;;4.28;;
17147;SDS011;8689;47.364;8.796;2023-08-24T12:03:16;15.13;;;4.75;;
17147;SDS011;8689;47.364;8.796;2023-08-24T12:05:44;7.30;;;4.00;;
17147;SDS011;8689;47.364;8.796;2023-08-24T12:08:13;14.40;;;4.53;;
17147;SDS011;8689;47.364;8.796;2023-08-24T12:10:43;15.82;;;3.92;;
17147;SDS011;8689;47.364;8.796;2023-08-24T12:13:11;11.95;;;4.80;;
17147;SDS011;8689;47.364;8.796;2023-08-24T12:15:40;12.23;;;4.30;;
17147;SDS011;8689;47.364;8.796;2023-08-24T12:18:07;7.05;;;4.43;;
17147;SDS011;8689;47.364;8.796;2023-08-24T12:20:35;9.65;;;4.30;;
17147;SDS011;8689;47.364;8.796;2023-08-24T12:23:03;12.25;;;4.70;;
17147;SDS011;8689;47.364;8.796;2023-08-24T12:25:35;13.38;;;4.10;;
17147;SDS011;8689;47.364;8.796;2023-08-24T12:28:10;16.52;;;4.88;;
17147;SDS011;8689;47.364;8.796;2023-08-24T12:30:45;12.20;;;4.35;;
17147;SDS011;8689;47.364;8.796;2023-08-24T12:33:23;13.60;;;4.72;;
17147;SDS011;8689;47.364;8.796;2023-08-24T12:35:51;12.85;;;3.88;;
17147;SDS011;8689;47.364;8.796;2023-08-24T12:38:18;24.13;;;5.05;;
17147;SDS011;8689;47.364;8.796;2023-08-24T12:40:48;17.23;;;5.00;;
17147;SDS011;8689;47.364;8.796;2023-08-24T12:43:16;16.58;;;4.93;;
17147;SDS011;8689;47.364;8.796;2023-08-24T12:45:43;19.95;;;5.57;;
17147;SDS011;8689;47.364;8.796;2023-08-24T12:48:10;15.45;;;4.70;;
17147;SDS011;8689;47.364;8.796;2023-08-24T12:50:38;15.38;;;5.00;;
17147;SDS011;8689;47.364;8.796;2023-08-24T12:53:05;10.18;;;4.32;;
17147;SDS011;8689;47.364;8.796;2023-08-24T12:55:32;12.80;;;4.18;;
17147;SDS011;8689;47.364;8.796;2023-08-24T12:58:03;13.95;;;5.68;;
17147;SDS011;8689;47.364;8.796;2023-08-24T13:00:30;18.33;;;4.93;;
17147;SDS011;8689;47.364;8.796;2023-08-24T13:02:57;13.07;;;4.45;;
17147;SDS011;8689;47.364;8.796;2023-08-24T13:05:24;12.10;;;4.72;;
17147;SDS011;8689;47.364;8.796;2023-08-24T13:07:51;16.95;;;5.38;;
17147;SDS011;8689;47.364;8.796;2023-08-24T13:10:18;16.85;;;4.30;;
17147;SDS011;8689;47.364;8.796;2023-08-24T13:12:46;16.23;;;4.20;;
17147;SDS011;8689;47.364;8.796;2023-08-24T13:15:14;11.40;;;4.47;;
17147;SDS011;8689;47.364;8.796;2023-08-24T13:17:41;12.23;;;5.50;;
17147;SDS011;8689;47.364;8.796;2023-08-24T13:20:09;7.88;;;3.50;;
17147;SDS011;8689;47.364;8.796;2023-08-24T13:22:37;12.95;;;4.15;;
17147;SDS011;8689;47.364;8.796;2023-08-24T13:25:04;13.18;;;3.95;;
17147;SDS011;8689;47.364;8.796;2023-08-24T13:27:33;12.38;;;3.90;;
17147;SDS011;8689;47.364;8.796;2023-08-24T13:30:00;19.50;;;4.43;;
17147;SDS011;8689;47.364;8.796;2023-08-24T13:32:29;16.27;;;4.25;;
17147;SDS011;8689;47.364;8.796;2023-08-24T13:34:56;12.00;;;3.78;;
17147;SDS011;8689;47.364;8.796;2023-08-24T13:37:24;18.00;;;4.28;;
17147;SDS011;8689;47.364;8.796;2023-08-24T13:39:51;10.95;;;3.53;;
17147;SDS011;8689;47.364;8.796;2023-08-24T13:42:18;14.63;;;3.55;;
17147;SDS011;8689;47.364;8.796;2023-08-24T13:44:48;15.35;;;3.38;;
17147;SDS011;8689;47.364;8.796;2023-08-24T13:47:15;15.07;;;4.63;;
17147;SDS011;8689;47.364;8.796;2023-08-24T13:49:44;15.77;;;4.45;;
17147;SDS011;8689;47.364;8.796;2023-08-24T13:52:23;16.75;;;3.70;;
17147;SDS011;8689;47.364;8.796;2023-08-24T13:54:56;16.23;;;4.45;;
17147;SDS011;8689;47.364;8.796;2023-08-24T13:57:54;8.52;;;4.32;;
17147;SDS011;8689;47.364;8.796;2023-08-24T14:00:46;10.05;;;3.60;;
17147;SDS011;8689;47.364;8.796;2023-08-24T14:06:29;18.27;;;3.92;;
17147;SDS011;8689;47.364;8.796;2023-08-24T14:08:56;14.10;;;4.97;;
17147;SDS011;8689;47.364;8.796;2023-08-24T14:11:24;14.35;;;4.22;;
17147;SDS011;8689;47.364;8.796;2023-08-24T14:13:51;15.65;;;3.92;;
17147;SDS011;8689;47.364;8.796;2023-08-24T14:16:18;10.95;;;3.72;;
17147;SDS011;8689;47.364;8.796;2023-08-24T14:18:53;16.73;;;5.57;;
17147;SDS011;8689;47.364;8.796;2023-08-24T14:21:34;12.70;;;4.28;;
17147;SDS011;8689;47.364;8.796;2023-08-24T14:24:02;13.18;;;3.88;;
17147;SDS011;8689;47.364;8.796;2023-08-24T14:26:29;20.48;;;4.95;;
17147;SDS011;8689;47.364;8.796;2023-08-24T14:28:57;13.80;;;4.93;;
17147;SDS011;8689;47.364;8.796;2023-08-24T14:31:29;13.30;;;4.10;;
17147;SDS011;8689;47.364;8.796;2023-08-24T14:34:04;16.83;;;5.05;;
17147;SDS011;8689;47.364;8.796;2023-08-24T14:39:22;11.93;;;4.18;;
17147;SDS011;8689;47.364;8.796;2023-08-24T14:41:50;14.85;;;4.50;;
17147;SDS011;8689;47.364;8.796;2023-08-24T14:44:21;9.63;;;4.05;;
17147;SDS011;8689;47.364;8.796;2023-08-24T14:46:50;12.65;;;3.58;;
17147;SDS011;8689;47.364;8.796;2023-08-24T14:49:19;62.22;;;12.77;;
17147;SDS011;8689;47.364;8.796;2023-08-24T14:52:23;61.78;;;14.32;;
17147;SDS011;8689;47.364;8.796;2023-08-24T14:58:58;17.27;;;4.78;;
17147;SDS011;8689;47.364;8.796;2023-08-24T15:01:52;15.05;;;4.47;;
17147;SDS011;8689;47.364;8.796;2023-08-24T15:04:28;14.23;;;4.68;;
17147;SDS011;8689;47.364;8.796;2023-08-24T15:06:57;16.63;;;5.13;;
17147;SDS011;8689;47.364;8.796;2023-08-24T15:09:29;18.27;;;4.43;;
17147;SDS011;8689;47.364;8.796;2023-08-24T15:11:57;16.67;;;4.13;;
17147;SDS011;8689;47.364;8.796;2023-08-24T15:14:27;15.82;;;4.78;;